Página principal
METAR-TAF:

METAR-TAF

Aeroportos :

Selawik, Alasca, Estados Unidos

latitude: 66-37N, longitude: 160-00W, altura: 8 m

Observação actual do tempo

O boletim foi feito há 1 hora e 1 minutos, às 18:56 UTC
Vento 9 kt de oes-sudoeste
Temperatura 13°C
Humidade 77%
Pressão 1018 hPa
Visibilidade: 16.1 km
Céu limpo

METAR: PASK 201856Z AUTO 25009KT 10SM CLR 13/09 A3006 RMK AO2 SLP177 T01280094

Hora: 11:57 (19:57 UTC)


TAF: em falta

Observações e previsões do tempo de mais de 4000 aeroportos (mensagens METAR e TAF).

As estações disponíveis são os pontos amarelos e vermelhos sobre o mapa.

Mova o rato sobre o mapa para ver o nome da estação.

Depois clique no ponto para visualizar as observações e previsões meteorológicas.

Para alterar o mapa : clique nos botões verdes com uma cruz preta para aumentar o zoom; no botão verde com uma pitada de zoom; ou nas setas verdes para mapas adjacentes.


METAR-TAF: